sensor_id;sensor_type;location;lat;lon;timestamp;P1;durP1;ratioP1;P2;durP2;ratioP2
71973;SDS011;59840;52.122;5.404;2023-11-21T00:01:03;10.53;;;4.60;;
71973;SDS011;59840;52.122;5.404;2023-11-21T00:03:31;11.10;;;4.22;;
71973;SDS011;59840;52.122;5.404;2023-11-21T00:05:58;11.38;;;3.75;;
71973;SDS011;59840;52.122;5.404;2023-11-21T00:08:24;18.63;;;3.60;;
71973;SDS011;59840;52.122;5.404;2023-11-21T00:10:51;9.40;;;4.05;;
71973;SDS011;59840;52.122;5.404;2023-11-21T00:13:17;14.50;;;3.90;;
71973;SDS011;59840;52.122;5.404;2023-11-21T00:15:44;12.80;;;4.10;;
71973;SDS011;59840;52.122;5.404;2023-11-21T00:18:11;20.75;;;4.32;;
71973;SDS011;59840;52.122;5.404;2023-11-21T00:20:38;49.05;;;5.50;;
71973;SDS011;59840;52.122;5.404;2023-11-21T00:23:04;27.65;;;4.30;;
71973;SDS011;59840;52.122;5.404;2023-11-21T00:25:31;14.53;;;3.93;;
71973;SDS011;59840;52.122;5.404;2023-11-21T00:27:58;18.23;;;3.58;;
71973;SDS011;59840;52.122;5.404;2023-11-21T00:30:25;10.23;;;4.57;;
71973;SDS011;59840;52.122;5.404;2023-11-21T00:32:52;17.48;;;3.65;;
71973;SDS011;59840;52.122;5.404;2023-11-21T00:35:19;15.32;;;4.20;;
71973;SDS011;59840;52.122;5.404;2023-11-21T00:37:45;13.53;;;3.87;;
71973;SDS011;59840;52.122;5.404;2023-11-21T00:40:12;10.43;;;4.50;;
71973;SDS011;59840;52.122;5.404;2023-11-21T00:42:41;7.30;;;4.25;;
71973;SDS011;59840;52.122;5.404;2023-11-21T00:45:08;9.38;;;4.47;;
71973;SDS011;59840;52.122;5.404;2023-11-21T00:47:35;7.95;;;3.78;;
71973;SDS011;59840;52.122;5.404;2023-11-21T00:50:01;7.83;;;4.27;;
71973;SDS011;59840;52.122;5.404;2023-11-21T00:52:28;6.32;;;4.18;;
71973;SDS011;59840;52.122;5.404;2023-11-21T00:54:55;6.90;;;4.10;;
71973;SDS011;59840;52.122;5.404;2023-11-21T00:57:21;6.50;;;4.00;;
71973;SDS011;59840;52.122;5.404;2023-11-21T00:59:48;18.35;;;4.72;;
71973;SDS011;59840;52.122;5.404;2023-11-21T01:02:14;7.10;;;3.80;;
71973;SDS011;59840;52.122;5.404;2023-11-21T01:04:41;11.38;;;4.82;;
71973;SDS011;59840;52.122;5.404;2023-11-21T01:07:08;5.78;;;3.95;;
71973;SDS011;59840;52.122;5.404;2023-11-21T01:09:35;6.40;;;3.78;;
71973;SDS011;59840;52.122;5.404;2023-11-21T01:12:01;7.85;;;4.03;;
71973;SDS011;59840;52.122;5.404;2023-11-21T01:14:28;7.53;;;4.47;;
71973;SDS011;59840;52.122;5.404;2023-11-21T01:16:54;5.45;;;3.60;;
71973;SDS011;59840;52.122;5.404;2023-11-21T01:19:21;5.80;;;3.58;;
71973;SDS011;59840;52.122;5.404;2023-11-21T01:21:48;6.93;;;3.47;;
71973;SDS011;59840;52.122;5.404;2023-11-21T01:24:15;7.68;;;3.92;;
71973;SDS011;59840;52.122;5.404;2023-11-21T01:26:41;5.97;;;3.30;;
71973;SDS011;59840;52.122;5.404;2023-11-21T01:29:08;5.20;;;2.83;;
71973;SDS011;59840;52.122;5.404;2023-11-21T01:31:34;6.35;;;3.67;;
71973;SDS011;59840;52.122;5.404;2023-11-21T01:34:01;6.40;;;3.47;;
71973;SDS011;59840;52.122;5.404;2023-11-21T01:36:31;6.93;;;3.80;;
71973;SDS011;59840;52.122;5.404;2023-11-21T01:39:01;7.57;;;3.90;;
71973;SDS011;59840;52.122;5.404;2023-11-21T01:41:34;5.72;;;4.13;;
71973;SDS011;59840;52.122;5.404;2023-11-21T01:44:01;4.97;;;3.47;;
71973;SDS011;59840;52.122;5.404;2023-11-21T01:46:28;6.57;;;3.67;;
71973;SDS011;59840;52.122;5.404;2023-11-21T01:48:55;5.85;;;3.80;;
71973;SDS011;59840;52.122;5.404;2023-11-21T01:51:22;5.53;;;3.47;;
71973;SDS011;59840;52.122;5.404;2023-11-21T01:53:48;5.78;;;3.30;;
71973;SDS011;59840;52.122;5.404;2023-11-21T01:56:16;4.82;;;3.00;;
71973;SDS011;59840;52.122;5.404;2023-11-21T01:58:42;6.53;;;3.13;;
71973;SDS011;59840;52.122;5.404;2023-11-21T02:01:09;6.43;;;3.33;;
71973;SDS011;59840;52.122;5.404;2023-11-21T02:03:36;5.73;;;3.17;;
71973;SDS011;59840;52.122;5.404;2023-11-21T02:06:03;5.82;;;3.42;;
71973;SDS011;59840;52.122;5.404;2023-11-21T02:08:30;6.65;;;3.28;;
71973;SDS011;59840;52.122;5.404;2023-11-21T02:10:57;8.25;;;4.20;;
71973;SDS011;59840;52.122;5.404;2023-11-21T02:13:24;5.28;;;3.72;;
71973;SDS011;59840;52.122;5.404;2023-11-21T02:15:50;8.83;;;4.00;;
71973;SDS011;59840;52.122;5.404;2023-11-21T02:18:18;7.75;;;3.70;;
71973;SDS011;59840;52.122;5.404;2023-11-21T02:20:45;7.78;;;3.78;;
71973;SDS011;59840;52.122;5.404;2023-11-21T02:23:13;6.13;;;3.72;;
71973;SDS011;59840;52.122;5.404;2023-11-21T02:25:40;8.23;;;3.97;;
71973;SDS011;59840;52.122;5.404;2023-11-21T02:28:09;5.47;;;3.77;;
71973;SDS011;59840;52.122;5.404;2023-11-21T02:30:39;7.95;;;4.07;;
71973;SDS011;59840;52.122;5.404;2023-11-21T02:33:05;8.32;;;3.95;;
71973;SDS011;59840;52.122;5.404;2023-11-21T02:35:33;8.68;;;3.92;;
71973;SDS011;59840;52.122;5.404;2023-11-21T02:38:01;8.73;;;3.92;;
71973;SDS011;59840;52.122;5.404;2023-11-21T02:40:28;8.63;;;3.97;;
71973;SDS011;59840;52.122;5.404;2023-11-21T02:42:55;6.30;;;3.92;;
71973;SDS011;59840;52.122;5.404;2023-11-21T02:45:25;7.88;;;3.60;;
71973;SDS011;59840;52.122;5.404;2023-11-21T02:47:52;5.88;;;3.85;;
71973;SDS011;59840;52.122;5.404;2023-11-21T02:50:24;8.32;;;4.18;;
71973;SDS011;59840;52.122;5.404;2023-11-21T02:52:51;7.87;;;3.70;;
71973;SDS011;59840;52.122;5.404;2023-11-21T02:55:18;5.88;;;3.53;;
71973;SDS011;59840;52.122;5.404;2023-11-21T02:57:44;7.28;;;3.72;;
71973;SDS011;59840;52.122;5.404;2023-11-21T03:00:11;5.60;;;3.45;;
71973;SDS011;59840;52.122;5.404;2023-11-21T03:02:40;6.28;;;3.90;;
71973;SDS011;59840;52.122;5.404;2023-11-21T03:05:07;6.53;;;3.60;;
71973;SDS011;59840;52.122;5.404;2023-11-21T03:07:37;8.20;;;3.33;;
71973;SDS011;59840;52.122;5.404;2023-11-21T03:10:05;8.02;;;3.85;;
71973;SDS011;59840;52.122;5.404;2023-11-21T03:12:35;8.05;;;3.67;;
71973;SDS011;59840;52.122;5.404;2023-11-21T03:15:02;7.70;;;4.13;;
71973;SDS011;59840;52.122;5.404;2023-11-21T03:17:29;5.33;;;3.90;;
71973;SDS011;59840;52.122;5.404;2023-11-21T03:19:55;13.02;;;4.40;;
71973;SDS011;59840;52.122;5.404;2023-11-21T03:22:23;6.15;;;3.78;;
71973;SDS011;59840;52.122;5.404;2023-11-21T03:24:50;7.10;;;4.18;;
71973;SDS011;59840;52.122;5.404;2023-11-21T03:27:16;7.28;;;3.80;;
71973;SDS011;59840;52.122;5.404;2023-11-21T03:29:43;5.97;;;3.73;;
71973;SDS011;59840;52.122;5.404;2023-11-21T03:32:11;7.88;;;4.05;;
71973;SDS011;59840;52.122;5.404;2023-11-21T03:34:52;6.93;;;3.75;;
71973;SDS011;59840;52.122;5.404;2023-11-21T03:37:24;6.60;;;3.50;;
71973;SDS011;59840;52.122;5.404;2023-11-21T03:39:51;6.07;;;3.80;;
71973;SDS011;59840;52.122;5.404;2023-11-21T03:42:18;6.20;;;3.53;;
71973;SDS011;59840;52.122;5.404;2023-11-21T03:44:44;6.95;;;3.60;;
71973;SDS011;59840;52.122;5.404;2023-11-21T03:47:11;6.28;;;3.70;;
71973;SDS011;59840;52.122;5.404;2023-11-21T03:49:38;7.05;;;3.97;;
71973;SDS011;59840;52.122;5.404;2023-11-21T03:52:04;6.43;;;3.63;;
71973;SDS011;59840;52.122;5.404;2023-11-21T03:54:31;7.10;;;3.33;;
71973;SDS011;59840;52.122;5.404;2023-11-21T03:56:58;7.32;;;3.60;;
71973;SDS011;59840;52.122;5.404;2023-11-21T03:59:24;6.07;;;3.42;;
71973;SDS011;59840;52.122;5.404;2023-11-21T04:01:51;6.70;;;3.35;;
71973;SDS011;59840;52.122;5.404;2023-11-21T04:04:18;8.32;;;4.13;;
71973;SDS011;59840;52.122;5.404;2023-11-21T04:06:44;5.37;;;3.30;;
71973;SDS011;59840;52.122;5.404;2023-11-21T04:09:11;6.05;;;3.60;;
71973;SDS011;59840;52.122;5.404;2023-11-21T04:11:38;10.30;;;3.47;;
71973;SDS011;59840;52.122;5.404;2023-11-21T04:14:05;6.30;;;3.72;;
71973;SDS011;59840;52.122;5.404;2023-11-21T04:16:32;7.38;;;3.60;;
71973;SDS011;59840;52.122;5.404;2023-11-21T04:19:00;4.50;;;2.80;;
71973;SDS011;59840;52.122;5.404;2023-11-21T04:21:26;5.53;;;3.50;;
71973;SDS011;59840;52.122;5.404;2023-11-21T04:23:53;7.97;;;3.30;;
71973;SDS011;59840;52.122;5.404;2023-11-21T04:26:20;8.43;;;3.92;;
71973;SDS011;59840;52.122;5.404;2023-11-21T04:28:46;6.68;;;4.00;;
71973;SDS011;59840;52.122;5.404;2023-11-21T04:31:13;9.20;;;4.40;;
71973;SDS011;59840;52.122;5.404;2023-11-21T04:33:39;9.23;;;4.53;;
71973;SDS011;59840;52.122;5.404;2023-11-21T04:36:06;6.30;;;4.10;;
71973;SDS011;59840;52.122;5.404;2023-11-21T04:38:33;6.10;;;4.35;;
71973;SDS011;59840;52.122;5.404;2023-11-21T04:41:00;11.25;;;4.35;;
71973;SDS011;59840;52.122;5.404;2023-11-21T04:43:29;8.97;;;4.40;;
71973;SDS011;59840;52.122;5.404;2023-11-21T04:45:55;9.20;;;4.50;;
71973;SDS011;59840;52.122;5.404;2023-11-21T04:48:22;8.50;;;4.13;;
71973;SDS011;59840;52.122;5.404;2023-11-21T04:50:49;10.00;;;4.43;;
71973;SDS011;59840;52.122;5.404;2023-11-21T04:53:15;9.80;;;4.72;;
71973;SDS011;59840;52.122;5.404;2023-11-21T04:55:42;8.93;;;4.10;;
71973;SDS011;59840;52.122;5.404;2023-11-21T04:58:08;11.52;;;4.68;;
71973;SDS011;59840;52.122;5.404;2023-11-21T05:00:35;7.22;;;4.03;;
71973;SDS011;59840;52.122;5.404;2023-11-21T05:03:06;12.07;;;4.85;;
71973;SDS011;59840;52.122;5.404;2023-11-21T05:05:33;8.27;;;4.65;;
71973;SDS011;59840;52.122;5.404;2023-11-21T05:08:00;11.23;;;4.53;;
71973;SDS011;59840;52.122;5.404;2023-11-21T05:10:28;7.70;;;4.28;;
71973;SDS011;59840;52.122;5.404;2023-11-21T05:12:55;7.97;;;4.30;;
71973;SDS011;59840;52.122;5.404;2023-11-21T05:15:22;10.07;;;4.70;;
71973;SDS011;59840;52.122;5.404;2023-11-21T05:17:49;8.60;;;4.43;;
71973;SDS011;59840;52.122;5.404;2023-11-21T05:20:16;7.33;;;4.47;;
71973;SDS011;59840;52.122;5.404;2023-11-21T05:22:47;10.00;;;4.10;;
71973;SDS011;59840;52.122;5.404;2023-11-21T05:25:17;8.07;;;3.72;;
71973;SDS011;59840;52.122;5.404;2023-11-21T05:27:47;9.05;;;4.40;;
71973;SDS011;59840;52.122;5.404;2023-11-21T05:30:14;12.90;;;4.93;;
71973;SDS011;59840;52.122;5.404;2023-11-21T05:32:41;8.53;;;4.07;;
71973;SDS011;59840;52.122;5.404;2023-11-21T05:35:10;7.63;;;4.22;;
71973;SDS011;59840;52.122;5.404;2023-11-21T05:37:43;10.93;;;4.63;;
71973;SDS011;59840;52.122;5.404;2023-11-21T05:40:12;7.50;;;4.10;;
71973;SDS011;59840;52.122;5.404;2023-11-21T05:42:39;6.45;;;4.15;;
71973;SDS011;59840;52.122;5.404;2023-11-21T05:45:07;9.93;;;4.40;;
71973;SDS011;59840;52.122;5.404;2023-11-21T05:47:39;10.80;;;4.28;;
71973;SDS011;59840;52.122;5.404;2023-11-21T05:50:10;12.30;;;4.30;;
71973;SDS011;59840;52.122;5.404;2023-11-21T05:52:38;11.85;;;4.55;;
71973;SDS011;59840;52.122;5.404;2023-11-21T05:55:08;8.65;;;4.47;;
71973;SDS011;59840;52.122;5.404;2023-11-21T05:57:36;10.40;;;4.57;;
71973;SDS011;59840;52.122;5.404;2023-11-21T06:00:12;10.40;;;4.63;;
71973;SDS011;59840;52.122;5.404;2023-11-21T06:02:48;8.52;;;4.47;;
71973;SDS011;59840;52.122;5.404;2023-11-21T06:05:24;6.22;;;3.85;;
71973;SDS011;59840;52.122;5.404;2023-11-21T06:07:53;11.25;;;4.57;;
71973;SDS011;59840;52.122;5.404;2023-11-21T06:10:21;11.97;;;4.40;;
71973;SDS011;59840;52.122;5.404;2023-11-21T06:12:50;10.88;;;4.45;;
71973;SDS011;59840;52.122;5.404;2023-11-21T06:15:17;9.75;;;4.63;;
71973;SDS011;59840;52.122;5.404;2023-11-21T06:17:46;6.95;;;4.47;;
71973;SDS011;59840;52.122;5.404;2023-11-21T06:20:15;8.88;;;4.60;;
71973;SDS011;59840;52.122;5.404;2023-11-21T06:22:45;9.17;;;4.40;;
71973;SDS011;59840;52.122;5.404;2023-11-21T06:25:12;11.40;;;4.43;;
71973;SDS011;59840;52.122;5.404;2023-11-21T06:27:41;11.32;;;4.65;;
71973;SDS011;59840;52.122;5.404;2023-11-21T06:30:09;9.60;;;4.25;;
71973;SDS011;59840;52.122;5.404;2023-11-21T06:32:38;9.23;;;4.28;;
71973;SDS011;59840;52.122;5.404;2023-11-21T06:35:08;10.53;;;4.60;;
71973;SDS011;59840;52.122;5.404;2023-11-21T06:37:36;9.30;;;4.72;;
71973;SDS011;59840;52.122;5.404;2023-11-21T06:40:03;11.40;;;4.53;;
71973;SDS011;59840;52.122;5.404;2023-11-21T06:42:30;13.85;;;5.03;;
71973;SDS011;59840;52.122;5.404;2023-11-21T06:44:57;8.75;;;4.75;;
71973;SDS011;59840;52.122;5.404;2023-11-21T06:47:25;9.83;;;4.23;;
71973;SDS011;59840;52.122;5.404;2023-11-21T06:49:52;13.50;;;4.38;;
71973;SDS011;59840;52.122;5.404;2023-11-21T06:52:19;11.07;;;4.35;;
71973;SDS011;59840;52.122;5.404;2023-11-21T06:54:47;10.95;;;4.90;;
71973;SDS011;59840;52.122;5.404;2023-11-21T06:57:13;7.20;;;4.32;;
71973;SDS011;59840;52.122;5.404;2023-11-21T06:59:40;11.90;;;4.63;;
71973;SDS011;59840;52.122;5.404;2023-11-21T07:02:06;10.43;;;3.88;;
71973;SDS011;59840;52.122;5.404;2023-11-21T07:04:33;12.23;;;4.63;;
71973;SDS011;59840;52.122;5.404;2023-11-21T07:07:00;9.60;;;4.90;;
71973;SDS011;59840;52.122;5.404;2023-11-21T07:09:27;14.32;;;4.47;;
71973;SDS011;59840;52.122;5.404;2023-11-21T07:11:53;10.30;;;5.33;;
71973;SDS011;59840;52.122;5.404;2023-11-21T07:14:21;13.40;;;4.28;;
71973;SDS011;59840;52.122;5.404;2023-11-21T07:16:48;9.55;;;3.65;;
71973;SDS011;59840;52.122;5.404;2023-11-21T07:19:15;11.52;;;3.80;;
71973;SDS011;59840;52.122;5.404;2023-11-21T07:21:41;13.00;;;4.55;;
71973;SDS011;59840;52.122;5.404;2023-11-21T07:24:08;7.00;;;4.30;;
71973;SDS011;59840;52.122;5.404;2023-11-21T07:26:35;9.23;;;4.25;;
71973;SDS011;59840;52.122;5.404;2023-11-21T07:29:02;15.15;;;4.15;;
71973;SDS011;59840;52.122;5.404;2023-11-21T07:31:29;7.38;;;4.13;;
71973;SDS011;59840;52.122;5.404;2023-11-21T07:33:56;11.25;;;4.07;;
71973;SDS011;59840;52.122;5.404;2023-11-21T07:36:25;8.63;;;3.70;;
71973;SDS011;59840;52.122;5.404;2023-11-21T07:38:52;6.28;;;3.50;;
71973;SDS011;59840;52.122;5.404;2023-11-21T07:41:19;8.32;;;3.63;;
71973;SDS011;59840;52.122;5.404;2023-11-21T07:43:56;10.65;;;3.67;;
71973;SDS011;59840;52.122;5.404;2023-11-21T07:46:23;9.80;;;4.43;;
71973;SDS011;59840;52.122;5.404;2023-11-21T07:48:50;11.83;;;4.03;;
71973;SDS011;59840;52.122;5.404;2023-11-21T07:51:18;6.90;;;3.70;;
71973;SDS011;59840;52.122;5.404;2023-11-21T07:53:45;8.35;;;3.72;;
71973;SDS011;59840;52.122;5.404;2023-11-21T07:56:12;10.43;;;3.85;;
71973;SDS011;59840;52.122;5.404;2023-11-21T07:58:39;11.15;;;3.88;;
71973;SDS011;59840;52.122;5.404;2023-11-21T08:01:06;8.30;;;4.13;;
71973;SDS011;59840;52.122;5.404;2023-11-21T08:03:34;9.60;;;3.30;;
71973;SDS011;59840;52.122;5.404;2023-11-21T08:06:01;11.82;;;4.07;;
71973;SDS011;59840;52.122;5.404;2023-11-21T08:08:29;8.75;;;3.67;;
71973;SDS011;59840;52.122;5.404;2023-11-21T08:10:56;11.65;;;3.45;;
71973;SDS011;59840;52.122;5.404;2023-11-21T08:13:23;7.37;;;3.07;;
71973;SDS011;59840;52.122;5.404;2023-11-21T08:15:55;6.28;;;2.97;;
71973;SDS011;59840;52.122;5.404;2023-11-21T08:18:23;4.82;;;2.60;;
71973;SDS011;59840;52.122;5.404;2023-11-21T08:20:49;10.18;;;3.10;;
71973;SDS011;59840;52.122;5.404;2023-11-21T08:23:16;7.25;;;3.05;;
71973;SDS011;59840;52.122;5.404;2023-11-21T08:25:46;8.30;;;3.40;;
71973;SDS011;59840;52.122;5.404;2023-11-21T08:28:12;7.22;;;3.15;;
71973;SDS011;59840;52.122;5.404;2023-11-21T08:30:42;8.65;;;2.67;;
71973;SDS011;59840;52.122;5.404;2023-11-21T08:33:09;9.90;;;2.83;;
71973;SDS011;59840;52.122;5.404;2023-11-21T08:35:37;6.93;;;3.20;;
71973;SDS011;59840;52.122;5.404;2023-11-21T08:38:04;6.07;;;2.57;;
71973;SDS011;59840;52.122;5.404;2023-11-21T08:40:31;4.43;;;2.05;;
71973;SDS011;59840;52.122;5.404;2023-11-21T08:42:57;6.22;;;2.90;;
71973;SDS011;59840;52.122;5.404;2023-11-21T08:45:27;5.97;;;2.80;;
71973;SDS011;59840;52.122;5.404;2023-11-21T08:47:54;7.63;;;3.10;;
71973;SDS011;59840;52.122;5.404;2023-11-21T08:50:21;5.53;;;2.50;;
71973;SDS011;59840;52.122;5.404;2023-11-21T08:52:47;5.50;;;2.55;;
71973;SDS011;59840;52.122;5.404;2023-11-21T08:55:14;5.45;;;2.70;;
71973;SDS011;59840;52.122;5.404;2023-11-21T08:57:43;10.60;;;2.72;;
71973;SDS011;59840;52.122;5.404;2023-11-21T09:00:12;7.70;;;2.78;;
71973;SDS011;59840;52.122;5.404;2023-11-21T09:02:39;6.17;;;2.87;;
71973;SDS011;59840;52.122;5.404;2023-11-21T09:05:08;5.40;;;3.20;;
71973;SDS011;59840;52.122;5.404;2023-11-21T09:07:36;9.52;;;3.45;;
71973;SDS011;59840;52.122;5.404;2023-11-21T09:10:05;5.43;;;3.30;;
71973;SDS011;59840;52.122;5.404;2023-11-21T09:12:36;6.75;;;3.17;;
71973;SDS011;59840;52.122;5.404;2023-11-21T09:15:06;6.57;;;3.40;;
71973;SDS011;59840;52.122;5.404;2023-11-21T09:17:36;10.05;;;3.80;;
71973;SDS011;59840;52.122;5.404;2023-11-21T09:20:03;7.35;;;3.47;;
71973;SDS011;59840;52.122;5.404;2023-11-21T09:22:32;7.78;;;4.60;;
71973;SDS011;59840;52.122;5.404;2023-11-21T09:24:58;7.63;;;4.00;;
71973;SDS011;59840;52.122;5.404;2023-11-21T09:27:25;8.70;;;3.77;;
71973;SDS011;59840;52.122;5.404;2023-11-21T09:29:52;7.60;;;4.22;;
71973;SDS011;59840;52.122;5.404;2023-11-21T09:32:21;6.88;;;4.07;;
71973;SDS011;59840;52.122;5.404;2023-11-21T09:34:48;8.60;;;4.70;;
71973;SDS011;59840;52.122;5.404;2023-11-21T09:37:16;10.40;;;5.10;;
71973;SDS011;59840;52.122;5.404;2023-11-21T09:39:43;11.53;;;5.27;;
71973;SDS011;59840;52.122;5.404;2023-11-21T09:47:13;9.07;;;5.00;;
71973;SDS011;59840;52.122;5.404;2023-11-21T09:49:44;9.35;;;4.95;;
71973;SDS011;59840;52.122;5.404;2023-11-21T09:52:16;11.67;;;5.10;;
71973;SDS011;59840;52.122;5.404;2023-11-21T09:54:50;8.90;;;4.60;;
71973;SDS011;59840;52.122;5.404;2023-11-21T09:57:18;8.60;;;4.45;;
71973;SDS011;59840;52.122;5.404;2023-11-21T09:59:48;9.02;;;4.97;;
71973;SDS011;59840;52.122;5.404;2023-11-21T10:02:18;8.88;;;4.68;;
71973;SDS011;59840;52.122;5.404;2023-11-21T10:04:47;9.60;;;4.90;;
71973;SDS011;59840;52.122;5.404;2023-11-21T10:07:14;9.68;;;4.78;;
71973;SDS011;59840;52.122;5.404;2023-11-21T10:09:44;6.13;;;3.70;;
71973;SDS011;59840;52.122;5.404;2023-11-21T10:12:11;6.57;;;3.97;;
71973;SDS011;59840;52.122;5.404;2023-11-21T10:14:39;8.20;;;4.15;;
71973;SDS011;59840;52.122;5.404;2023-11-21T10:17:08;8.13;;;4.20;;
71973;SDS011;59840;52.122;5.404;2023-11-21T10:19:38;8.50;;;4.05;;
71973;SDS011;59840;52.122;5.404;2023-11-21T10:22:06;5.95;;;3.22;;
71973;SDS011;59840;52.122;5.404;2023-11-21T10:24:35;8.27;;;3.80;;
71973;SDS011;59840;52.122;5.404;2023-11-21T10:27:17;5.10;;;3.05;;
71973;SDS011;59840;52.122;5.404;2023-11-21T10:29:44;5.53;;;3.13;;
71973;SDS011;59840;52.122;5.404;2023-11-21T10:32:11;4.47;;;2.47;;
71973;SDS011;59840;52.122;5.404;2023-11-21T10:34:38;5.15;;;3.10;;
71973;SDS011;59840;52.122;5.404;2023-11-21T10:37:11;5.88;;;3.00;;
71973;SDS011;59840;52.122;5.404;2023-11-21T10:39:38;5.47;;;3.13;;
71973;SDS011;59840;52.122;5.404;2023-11-21T10:42:07;8.80;;;4.43;;
71973;SDS011;59840;52.122;5.404;2023-11-21T10:44:36;7.72;;;3.95;;
71973;SDS011;59840;52.122;5.404;2023-11-21T10:47:02;8.27;;;3.88;;
71973;SDS011;59840;52.122;5.404;2023-11-21T10:49:29;6.07;;;3.90;;
71973;SDS011;59840;52.122;5.404;2023-11-21T10:51:56;8.48;;;3.55;;
71973;SDS011;59840;52.122;5.404;2023-11-21T10:54:24;6.20;;;3.43;;
71973;SDS011;59840;52.122;5.404;2023-11-21T10:56:58;7.75;;;3.40;;
71973;SDS011;59840;52.122;5.404;2023-11-21T10:59:28;5.55;;;2.78;;
71973;SDS011;59840;52.122;5.404;2023-11-21T11:01:58;7.07;;;3.40;;
71973;SDS011;59840;52.122;5.404;2023-11-21T11:04:27;7.97;;;3.25;;
71973;SDS011;59840;52.122;5.404;2023-11-21T11:06:55;6.13;;;3.13;;
71973;SDS011;59840;52.122;5.404;2023-11-21T11:09:23;8.75;;;3.92;;
71973;SDS011;59840;52.122;5.404;2023-11-21T11:11:51;7.32;;;4.00;;
71973;SDS011;59840;52.122;5.404;2023-11-21T11:14:19;7.10;;;4.07;;
71973;SDS011;59840;52.122;5.404;2023-11-21T11:16:46;6.95;;;4.30;;
71973;SDS011;59840;52.122;5.404;2023-11-21T11:19:13;9.07;;;4.30;;
71973;SDS011;59840;52.122;5.404;2023-11-21T11:33:08;8.37;;;3.90;;
71973;SDS011;59840;52.122;5.404;2023-11-21T11:38:34;6.65;;;3.88;;
71973;SDS011;59840;52.122;5.404;2023-11-21T11:41:02;6.20;;;3.35;;
71973;SDS011;59840;52.122;5.404;2023-11-21T11:43:30;7.20;;;3.95;;
71973;SDS011;59840;52.122;5.404;2023-11-21T11:46:11;6.97;;;3.70;;
71973;SDS011;59840;52.122;5.404;2023-11-21T11:48:41;6.88;;;4.22;;
71973;SDS011;59840;52.122;5.404;2023-11-21T11:51:12;7.22;;;4.60;;
71973;SDS011;59840;52.122;5.404;2023-11-21T11:53:47;8.57;;;4.55;;
71973;SDS011;59840;52.122;5.404;2023-11-21T11:56:31;9.57;;;4.80;;
71973;SDS011;59840;52.122;5.404;2023-11-21T11:59:02;11.47;;;4.17;;
71973;SDS011;59840;52.122;5.404;2023-11-21T12:01:32;7.78;;;4.78;;
71973;SDS011;59840;52.122;5.404;2023-11-21T12:06:46;8.85;;;4.75;;
71973;SDS011;59840;52.122;5.404;2023-11-21T12:09:19;9.27;;;5.00;;
71973;SDS011;59840;52.122;5.404;2023-11-21T12:11:51;7.73;;;4.40;;
71973;SDS011;59840;52.122;5.404;2023-11-21T12:14:18;10.40;;;5.35;;
71973;SDS011;59840;52.122;5.404;2023-11-21T12:16:44;9.20;;;4.20;;
71973;SDS011;59840;52.122;5.404;2023-11-21T12:19:12;10.40;;;5.10;;
71973;SDS011;59840;52.122;5.404;2023-11-21T12:21:39;11.30;;;5.68;;
71973;SDS011;59840;52.122;5.404;2023-11-21T12:24:10;9.37;;;5.03;;
71973;SDS011;59840;52.122;5.404;2023-11-21T12:26:41;16.55;;;5.88;;
71973;SDS011;59840;52.122;5.404;2023-11-21T12:29:09;12.40;;;5.80;;
71973;SDS011;59840;52.122;5.404;2023-11-21T12:31:37;9.85;;;5.93;;
71973;SDS011;59840;52.122;5.404;2023-11-21T12:34:04;12.18;;;6.97;;
71973;SDS011;59840;52.122;5.404;2023-11-21T12:36:30;11.70;;;6.43;;
71973;SDS011;59840;52.122;5.404;2023-11-21T12:38:57;13.40;;;6.18;;
71973;SDS011;59840;52.122;5.404;2023-11-21T12:41:24;10.77;;;5.80;;
71973;SDS011;59840;52.122;5.404;2023-11-21T12:43:52;12.48;;;5.82;;
71973;SDS011;59840;52.122;5.404;2023-11-21T12:46:19;13.95;;;6.05;;
71973;SDS011;59840;52.122;5.404;2023-11-21T12:48:46;13.80;;;5.30;;
71973;SDS011;59840;52.122;5.404;2023-11-21T12:51:13;10.55;;;5.95;;
71973;SDS011;59840;52.122;5.404;2023-11-21T12:53:40;11.23;;;5.55;;
71973;SDS011;59840;52.122;5.404;2023-11-21T12:56:12;11.10;;;5.45;;
71973;SDS011;59840;52.122;5.404;2023-11-21T12:58:39;12.88;;;6.13;;
71973;SDS011;59840;52.122;5.404;2023-11-21T13:01:12;11.60;;;6.43;;
71973;SDS011;59840;52.122;5.404;2023-11-21T13:03:47;12.30;;;5.65;;
71973;SDS011;59840;52.122;5.404;2023-11-21T13:06:17;10.25;;;5.50;;
71973;SDS011;59840;52.122;5.404;2023-11-21T13:08:45;11.40;;;5.30;;
71973;SDS011;59840;52.122;5.404;2023-11-21T13:11:12;11.55;;;5.25;;
71973;SDS011;59840;52.122;5.404;2023-11-21T13:13:42;9.37;;;4.60;;
71973;SDS011;59840;52.122;5.404;2023-11-21T13:16:10;11.13;;;5.90;;
71973;SDS011;59840;52.122;5.404;2023-11-21T13:18:37;8.13;;;3.88;;
71973;SDS011;59840;52.122;5.404;2023-11-21T13:21:08;6.10;;;3.67;;
71973;SDS011;59840;52.122;5.404;2023-11-21T13:23:42;4.40;;;2.85;;
71973;SDS011;59840;52.122;5.404;2023-11-21T13:26:09;5.40;;;2.63;;
71973;SDS011;59840;52.122;5.404;2023-11-21T13:28:36;3.75;;;2.13;;
71973;SDS011;59840;52.122;5.404;2023-11-21T13:31:05;4.38;;;1.67;;
71973;SDS011;59840;52.122;5.404;2023-11-21T13:33:49;3.55;;;2.10;;
71973;SDS011;59840;52.122;5.404;2023-11-21T13:36:31;3.00;;;1.48;;
71973;SDS011;59840;52.122;5.404;2023-11-21T13:39:01;2.47;;;1.67;;
71973;SDS011;59840;52.122;5.404;2023-11-21T13:41:34;3.65;;;1.80;;
71973;SDS011;59840;52.122;5.404;2023-11-21T13:44:01;3.00;;;1.73;;
71973;SDS011;59840;52.122;5.404;2023-11-21T13:46:53;4.63;;;2.17;;
71973;SDS011;59840;52.122;5.404;2023-11-21T13:49:20;4.15;;;2.05;;
71973;SDS011;59840;52.122;5.404;2023-11-21T13:51:47;4.17;;;2.00;;
71973;SDS011;59840;52.122;5.404;2023-11-21T13:54:18;3.67;;;2.13;;
71973;SDS011;59840;52.122;5.404;2023-11-21T13:56:46;4.78;;;2.67;;
71973;SDS011;59840;52.122;5.404;2023-11-21T13:59:15;6.10;;;3.20;;
71973;SDS011;59840;52.122;5.404;2023-11-21T14:01:49;7.53;;;3.40;;
71973;SDS011;59840;52.122;5.404;2023-11-21T14:04:20;6.60;;;3.77;;
71973;SDS011;59840;52.122;5.404;2023-11-21T14:07:02;9.15;;;4.15;;
71973;SDS011;59840;52.122;5.404;2023-11-21T14:09:47;10.25;;;4.05;;
71973;SDS011;59840;52.122;5.404;2023-11-21T14:12:15;8.52;;;4.80;;
71973;SDS011;59840;52.122;5.404;2023-11-21T14:14:42;10.57;;;4.57;;
71973;SDS011;59840;52.122;5.404;2023-11-21T14:17:10;12.70;;;5.77;;
71973;SDS011;59840;52.122;5.404;2023-11-21T14:19:37;11.77;;;5.97;;
71973;SDS011;59840;52.122;5.404;2023-11-21T14:22:10;10.25;;;5.45;;
71973;SDS011;59840;52.122;5.404;2023-11-21T14:24:37;9.57;;;5.00;;
71973;SDS011;59840;52.122;5.404;2023-11-21T14:27:03;10.75;;;5.43;;
71973;SDS011;59840;52.122;5.404;2023-11-21T14:29:31;13.17;;;6.33;;
71973;SDS011;59840;52.122;5.404;2023-11-21T14:32:03;9.80;;;5.53;;
71973;SDS011;59840;52.122;5.404;2023-11-21T14:34:30;9.60;;;5.07;;
71973;SDS011;59840;52.122;5.404;2023-11-21T14:36:57;10.43;;;5.57;;
71973;SDS011;59840;52.122;5.404;2023-11-21T14:39:23;9.82;;;5.40;;
71973;SDS011;59840;52.122;5.404;2023-11-21T14:41:52;10.37;;;5.27;;
71973;SDS011;59840;52.122;5.404;2023-11-21T14:44:22;11.55;;;6.07;;
71973;SDS011;59840;52.122;5.404;2023-11-21T14:46:53;8.85;;;4.97;;
71973;SDS011;59840;52.122;5.404;2023-11-21T14:49:24;11.15;;;5.35;;
71973;SDS011;59840;52.122;5.404;2023-11-21T14:51:53;11.95;;;5.72;;
71973;SDS011;59840;52.122;5.404;2023-11-21T14:54:30;9.30;;;5.23;;
71973;SDS011;59840;52.122;5.404;2023-11-21T14:57:08;12.90;;;6.80;;
71973;SDS011;59840;52.122;5.404;2023-11-21T14:59:44;14.65;;;6.20;;
71973;SDS011;59840;52.122;5.404;2023-11-21T15:02:18;13.77;;;6.55;;
71973;SDS011;59840;52.122;5.404;2023-11-21T15:05:09;15.60;;;6.15;;
71973;SDS011;59840;52.122;5.404;2023-11-21T15:07:41;15.50;;;6.50;;
71973;SDS011;59840;52.122;5.404;2023-11-21T15:10:08;11.38;;;5.82;;
71973;SDS011;59840;52.122;5.404;2023-11-21T15:12:42;11.90;;;6.13;;